Time;durP1;ratioP1;P1;durP2;ratioP2;P2;SDS_P1;SDS_P2;PMS_P1;PMS_P2;Temp;Humidity;BMP_temperature;BMP_pressure;BME280_temperature;BME280_humidity;BME280_pressure;Samples;Min_cycle;Max_cycle;Signal;HPM_P1;HPM_P2
2023/07/18 00:00:46;;;;;;;18.80;5.47;;;;;;;18.22;100.00;100669.78;4943417;28;20232;-83
2023/07/18 00:03:15;;;;;;;5.13;2.17;;;;;;;18.19;100.00;100675.16;4949787;28;20232;-83
2023/07/18 00:05:42;;;;;;;33.20;8.02;;;;;;;18.09;100.00;100684.25;4945638;28;20241;-83
2023/07/18 00:08:09;;;;;;;5.30;2.17;;;;;;;18.13;100.00;100699.34;4932835;28;20236;-83
2023/07/18 00:10:36;;;;;;;9.93;3.13;;;;;;;18.10;100.00;100718.16;4950709;28;20230;-83
2023/07/18 00:13:04;;;;;;;5.70;2.35;;;;;;;18.06;100.00;100710.19;4954420;28;20320;-83
2023/07/18 00:15:31;;;;;;;10.32;3.40;;;;;;;18.11;100.00;100724.38;4951972;28;20234;-83
2023/07/18 00:17:59;;;;;;;4.53;1.92;;;;;;;18.02;100.00;100732.56;4946995;28;20245;-83
2023/07/18 00:20:26;;;;;;;5.15;2.15;;;;;;;18.01;100.00;100755.75;4951700;28;20253;-83
2023/07/18 00:22:52;;;;;;;4.22;1.88;;;;;;;18.10;100.00;100765.44;4922493;29;20453;-83
2023/07/18 00:25:20;;;;;;;5.55;2.28;;;;;;;18.08;100.00;100775.28;4951230;28;20282;-83
2023/07/18 00:27:51;;;;;;;9.18;3.17;;;;;;;17.97;100.00;100769.22;4939778;28;20230;-83
2023/07/18 00:30:18;;;;;;;5.65;2.13;;;;;;;17.96;100.00;100775.47;4950839;28;20261;-83
2023/07/18 00:32:45;;;;;;;10.70;3.47;;;;;;;18.03;100.00;100779.84;4947310;28;20238;-83
2023/07/18 00:35:13;;;;;;;3.90;1.70;;;;;;;17.96;100.00;100788.88;4953089;28;20270;-82
2023/07/18 00:37:41;;;;;;;17.85;5.07;;;;;;;17.84;100.00;100790.81;4945604;28;20250;-82
2023/07/18 00:40:10;;;;;;;6.07;2.80;;;;;;;17.83;100.00;100812.25;4950301;28;20604;-83
2023/07/18 00:42:47;;;;;;;23.50;6.22;;;;;;;17.82;100.00;100810.47;4945545;28;20296;-83
2023/07/18 00:45:14;;;;;;;5.63;2.30;;;;;;;17.77;100.00;100821.25;4950275;28;20742;-82
2023/07/18 00:47:43;;;;;;;12.68;4.20;;;;;;;17.91;100.00;100821.03;4944864;28;20232;-83
2023/07/18 00:50:17;;;;;;;4.82;2.15;;;;;;;17.75;100.00;100832.88;4948128;28;20237;-83
2023/07/18 00:52:48;;;;;;;10.38;3.95;;;;;;;17.69;100.00;100825.81;4945125;28;20232;-83
2023/07/18 00:55:16;;;;;;;5.13;2.08;;;;;;;17.64;100.00;100822.28;4933901;28;20229;-83
2023/07/18 00:57:45;;;;;;;12.38;4.20;;;;;;;17.77;100.00;100856.03;4943604;28;20278;-83
2023/07/18 01:00:13;;;;;;;4.80;2.03;;;;;;;17.77;100.00;100857.81;4936058;28;20229;-83
2023/07/18 01:02:42;;;;;;;13.70;4.22;;;;;;;17.69;100.00;100871.28;4944594;28;20230;-83
2023/07/18 01:05:10;;;;;;;3.67;1.58;;;;;;;17.78;100.00;100870.28;4947938;28;20222;-83
2023/07/18 01:07:38;;;;;;;10.23;3.42;;;;;;;17.80;100.00;100857.78;4947428;28;20632;-83
2023/07/18 01:10:24;;;;;;;5.85;2.50;;;;;;;17.70;100.00;100848.97;4946760;28;20221;-83
2023/07/18 01:12:53;;;;;;;14.57;4.50;;;;;;;17.69;100.00;100867.72;4938051;28;20225;-82
2023/07/18 01:15:20;;;;;;;5.47;2.47;;;;;;;17.67;100.00;100870.44;4934911;28;20241;-83
2023/07/18 01:17:49;;;;;;;31.92;7.57;;;;;;;17.58;100.00;100874.06;4944938;29;20313;-83
2023/07/18 01:20:26;;;;;;;5.07;2.30;;;;;;;17.50;100.00;100888.44;4952230;28;20229;-83
2023/07/18 01:22:55;;;;;;;5.75;2.20;;;;;;;17.47;100.00;100889.38;4931993;28;20240;-83
2023/07/18 01:25:22;;;;;;;5.63;2.30;;;;;;;17.43;100.00;100887.63;4947106;28;20250;-83
2023/07/18 01:27:51;;;;;;;33.00;7.90;;;;;;;17.42;100.00;100890.31;4939859;29;20233;-83
2023/07/18 01:30:20;;;;;;;5.68;2.40;;;;;;;17.40;100.00;100887.66;4933106;28;20241;-83
2023/07/18 01:32:52;;;;;;;34.40;7.63;;;;;;;17.42;100.00;100891.22;4943366;28;20297;-83
2023/07/18 01:35:25;;;;;;;5.43;2.22;;;;;;;17.39;100.00;100901.06;4946821;28;20225;-83
2023/07/18 01:37:53;;;;;;;15.23;4.38;;;;;;;17.39;100.00;100898.38;4946758;28;20234;-82
2023/07/18 01:40:20;;;;;;;4.28;1.83;;;;;;;17.30;100.00;100882.44;4948035;28;20635;-82
2023/07/18 01:42:51;;;;;;;19.45;5.93;;;;;;;17.33;100.00;100885.97;4938949;28;20226;-81
2023/07/18 01:45:19;;;;;;;5.60;2.50;;;;;;;17.30;100.00;100891.34;4945903;28;20264;-82
2023/07/18 01:47:48;;;;;;;9.77;3.83;;;;;;;17.27;100.00;100894.06;4946664;28;20230;-82
2023/07/18 01:50:15;;;;;;;5.38;2.45;;;;;;;17.24;100.00;100910.13;4947198;28;20229;-81
2023/07/18 01:52:42;;;;;;;9.43;3.33;;;;;;;17.21;100.00;100903.03;4948821;28;20233;-82
2023/07/18 01:55:12;;;;;;;4.47;2.00;;;;;;;17.18;100.00;100907.53;4930530;28;20229;-82
2023/07/18 01:57:39;;;;;;;9.18;3.50;;;;;;;17.23;100.00;100895.00;4940006;28;20225;-82
2023/07/18 02:00:17;;;;;;;6.63;2.75;;;;;;;17.22;100.00;100898.56;4945593;28;20293;-82
2023/07/18 02:02:45;;;;;;;9.45;3.20;;;;;;;17.13;100.00;100896.88;4936156;28;20276;-81
2023/07/18 02:05:13;;;;;;;5.35;2.30;;;;;;;17.09;100.00;100897.81;4948689;28;20238;-82
2023/07/18 02:07:39;;;;;;;9.73;3.38;;;;;;;17.13;100.00;100910.25;4943319;28;20247;-82
2023/07/18 02:10:06;;;;;;;4.20;1.85;;;;;;;17.07;100.00;100904.97;4932157;28;20225;-80
2023/07/18 02:12:33;;;;;;;4.55;1.85;;;;;;;17.06;100.00;100907.66;4931397;28;20229;-82
2023/07/18 02:14:59;;;;;;;8.07;3.42;;;;;;;17.08;100.00;100893.38;4946208;28;20234;-82
2023/07/18 02:17:26;;;;;;;6.25;2.60;;;;;;;17.02;100.00;100901.44;4942566;28;20231;-81
2023/07/18 02:19:53;;;;;;;8.15;3.25;;;;;;;16.96;100.00;100893.50;4922364;28;20294;-82
2023/07/18 02:22:21;;;;;;;6.97;3.15;;;;;;;17.06;100.00;100900.50;4939822;28;20210;-84
2023/07/18 02:24:48;;;;;;;12.05;3.92;;;;;;;16.95;100.00;100902.41;4922986;29;20332;-83
2023/07/18 02:27:15;;;;;;;4.80;2.30;;;;;;;17.00;100.00;100911.25;4944835;28;20287;-83
2023/07/18 02:29:41;;;;;;;10.27;3.88;;;;;;;16.97;100.00;100910.41;4944895;28;20265;-83
2023/07/18 02:32:08;;;;;;;6.07;2.50;;;;;;;16.90;100.00;100907.78;4946116;28;20317;-82
2023/07/18 02:34:35;;;;;;;5.88;2.30;;;;;;;16.90;100.00;100918.47;4946211;28;20240;-83
2023/07/18 02:37:02;;;;;;;5.05;2.28;;;;;;;16.90;100.00;100917.56;4949235;28;20237;-83
2023/07/18 02:39:32;;;;;;;7.63;3.15;;;;;;;16.85;100.00;100911.38;4926491;29;20329;-83
2023/07/18 02:41:59;;;;;;;5.15;2.28;;;;;;;16.82;100.00;100920.31;4935610;28;20241;-83
2023/07/18 02:44:26;;;;;;;4.70;2.05;;;;;;;16.79;100.00;100938.13;4943214;28;20233;-83
2023/07/18 02:46:53;;;;;;;7.82;2.80;;;;;;;16.68;100.00;100921.31;4933325;28;20245;-83
2023/07/18 02:49:20;;;;;;;4.00;1.85;;;;;;;16.63;100.00;100948.91;4943334;28;20288;-83
2023/07/18 02:51:47;;;;;;;30.58;6.82;;;;;;;16.60;100.00;100946.28;4939588;28;20576;-82
2023/07/18 02:54:14;;;;;;;4.28;1.92;;;;;;;16.55;100.00;100940.06;4949078;28;20221;-82
2023/07/18 02:56:40;;;;;;;29.80;7.65;;;;;;;16.67;100.00;100944.47;4923614;28;20230;-83
2023/07/18 02:59:07;;;;;;;5.30;2.50;;;;;;;16.58;100.00;100948.06;4944888;28;20233;-82
2023/07/18 03:01:34;;;;;;;7.57;3.08;;;;;;;16.60;100.00;100958.72;4935402;28;20308;-83
2023/07/18 03:04:01;;;;;;;6.72;2.75;;;;;;;16.58;100.00;100955.19;4943959;28;20275;-83
2023/07/18 03:06:28;;;;;;;7.22;3.25;;;;;;;16.59;100.00;100965.84;4943570;28;20261;-83
2023/07/18 03:08:55;;;;;;;5.05;2.22;;;;;;;16.54;100.00;100966.78;4942602;28;20359;-82
2023/07/18 03:11:22;;;;;;;5.28;2.40;;;;;;;16.50;100.00;100963.25;4943496;28;20241;-83
2023/07/18 03:13:49;;;;;;;33.53;7.70;;;;;;;16.42;100.00;100962.41;4937319;28;20237;-83
2023/07/18 03:16:16;;;;;;;9.80;3.95;;;;;;;16.46;100.00;100974.84;4943410;28;20234;-83
2023/07/18 03:18:43;;;;;;;30.70;6.72;;;;;;;16.42;100.00;100981.09;4926039;29;20230;-82
2023/07/18 03:21:09;;;;;;;4.88;2.10;;;;;;;16.44;100.00;100989.09;4945879;28;20229;-83
2023/07/18 03:23:36;;;;;;;15.43;4.43;;;;;;;16.55;100.00;100981.91;4938790;28;20225;-82
2023/07/18 03:26:03;;;;;;;6.82;2.65;;;;;;;16.57;100.00;100972.09;4941992;28;20226;-83
2023/07/18 03:28:29;;;;;;;3.58;1.60;;;;;;;16.66;100.00;100964.06;4946848;28;20601;-83
2023/07/18 03:30:56;;;;;;;4.50;2.03;;;;;;;16.63;100.00;100993.41;4933435;29;20237;-83
2023/07/18 03:33:23;;;;;;;5.05;2.10;;;;;;;16.67;100.00;101005.00;4941656;28;20233;-83
2023/07/18 03:35:50;;;;;;;23.92;5.78;;;;;;;16.61;100.00;101009.47;4944807;28;20230;-83
2023/07/18 03:38:16;;;;;;;6.43;2.60;;;;;;;16.56;100.00;101029.06;4943048;28;20265;-83
2023/07/18 03:40:43;;;;;;;23.58;6.97;;;;;;;16.64;100.00;101035.25;4940332;29;20234;-83
2023/07/18 03:43:10;;;;;;;7.40;3.05;;;;;;;16.69;100.00;101021.91;4944654;28;20228;-83
2023/07/18 03:45:37;;;;;;;16.67;5.00;;;;;;;16.75;100.00;101020.06;4935098;28;20233;-84
2023/07/18 03:48:04;;;;;;;9.98;2.58;;;;;;;16.69;100.00;101013.91;4942204;28;20285;-85
2023/07/18 03:50:31;;;;;;;4.60;1.88;;;;;;;16.64;100.00;101009.44;4941364;28;20229;-81
2023/07/18 03:52:58;;;;;;;3.88;1.85;;;;;;;16.50;100.00;101008.63;4926372;29;20238;-81
2023/07/18 03:55:25;;;;;;;4.50;1.98;;;;;;;16.40;100.00;101024.72;4949147;29;20221;-81
2023/07/18 03:57:52;;;;;;;55.22;11.27;;;;;;;16.46;100.00;100996.22;4936987;28;20226;-82
2023/07/18 04:00:19;;;;;;;5.00;2.20;;;;;;;16.42;100.00;100994.44;4921517;28;20239;-81
2023/07/18 04:02:46;;;;;;;54.55;13.63;;;;;;;16.47;100.00;101002.44;4920485;28;20717;-81
2023/07/18 04:05:20;;;;;;;4.25;1.85;;;;;;;16.36;100.00;101023.84;4944288;28;20239;-81
2023/07/18 04:07:47;;;;;;;28.48;6.88;;;;;;;16.09;100.00;101018.66;4936412;28;20259;-81
2023/07/18 04:10:14;;;;;;;4.82;2.10;;;;;;;16.11;100.00;101039.09;4945946;29;20234;-81
2023/07/18 04:12:41;;;;;;;31.80;7.53;;;;;;;16.28;100.00;101044.34;4941401;29;20222;-81
2023/07/18 04:15:09;;;;;;;4.60;2.08;;;;;;;16.28;100.00;101039.91;4944416;29;20234;-81
2023/07/18 04:17:36;;;;;;;16.38;4.28;;;;;;;16.02;100.00;101028.44;4940139;28;20694;-81
2023/07/18 04:20:05;;;;;;;3.95;1.70;;;;;;;15.86;100.00;101040.97;4944414;29;20237;-81
2023/07/18 04:22:32;;;;;;;5.30;2.22;;;;;;;15.51;100.00;101022.31;4944743;29;20233;-81
2023/07/18 04:24:59;;;;;;;5.05;2.17;;;;;;;15.64;100.00;101052.56;4939841;28;20738;-81
2023/07/18 04:27:27;;;;;;;6.22;2.65;;;;;;;15.65;100.00;101067.69;4944092;28;20232;-81
2023/07/18 04:29:56;;;;;;;6.35;2.22;;;;;;;15.68;100.00;101049.88;4939554;29;20236;-81
2023/07/18 04:32:24;;;;;;;4.35;1.90;;;;;;;15.66;100.00;101046.34;4941110;28;20226;-81
2023/07/18 04:34:51;;;;;;;24.58;5.60;;;;;;;15.63;100.00;101066.78;4939622;29;20230;-81
2023/07/18 04:37:20;;;;;;;4.47;1.95;;;;;;;15.47;100.00;101086.28;4944405;28;20230;-81
2023/07/18 04:39:47;;;;;;;29.58;6.68;;;;;;;15.40;100.00;101101.41;4943845;28;20328;-81
2023/07/18 04:42:14;;;;;;;4.85;2.00;;;;;;;15.48;100.00;101112.94;4949220;28;20222;-82
2023/07/18 04:44:41;;;;;;;29.30;7.05;;;;;;;15.51;100.00;101126.28;4940218;29;20230;-81
2023/07/18 04:47:08;;;;;;;5.05;2.08;;;;;;;15.51;100.00;101133.38;4944197;28;20239;-81
2023/07/18 04:49:35;;;;;;;16.33;4.68;;;;;;;15.51;100.00;101126.28;4938639;28;20217;-81
2023/07/18 04:52:03;;;;;;;4.97;1.95;;;;;;;15.52;100.00;101124.50;4944361;28;20258;-83
2023/07/18 04:54:30;;;;;;;7.57;2.58;;;;;;;15.55;100.00;101127.16;4927155;29;20232;-83
2023/07/18 04:56:56;;;;;;;4.43;1.98;;;;;;;15.55;100.00;101128.03;4938136;28;20238;-83
2023/07/18 04:59:23;;;;;;;5.40;2.15;;;;;;;15.67;100.00;101132.56;4948919;28;20238;-83
2023/07/18 05:01:56;;;;;;;28.05;6.00;;;;;;;15.85;100.00;101140.53;4943637;28;20285;-83
2023/07/18 05:04:23;;;;;;;5.70;2.33;;;;;;;15.88;100.00;101131.63;4935327;28;20312;-83
2023/07/18 05:06:50;;;;;;;36.15;8.00;;;;;;;15.97;100.00;101147.63;4937503;28;20238;-83
2023/07/18 05:09:17;;;;;;;5.22;2.08;;;;;;;15.87;100.00;101145.88;4948404;28;20233;-83
2023/07/18 05:11:44;;;;;;;36.70;8.73;;;;;;;15.95;100.00;101130.75;4939125;28;20284;-83
2023/07/18 05:14:11;;;;;;;4.57;1.75;;;;;;;16.05;100.00;101143.16;4950780;28;20225;-83
2023/07/18 05:16:37;;;;;;;34.08;8.20;;;;;;;16.22;100.00;101144.00;4937009;28;20222;-84
2023/07/18 05:19:04;;;;;;;4.82;2.03;;;;;;;16.23;100.00;101144.91;4948342;28;20229;-83
2023/07/18 05:21:31;;;;;;;5.13;2.20;;;;;;;16.31;100.00;101157.34;4943543;28;20222;-83
2023/07/18 05:23:58;;;;;;;5.63;2.28;;;;;;;16.37;100.00;101140.41;4935010;29;20320;-80
2023/07/18 05:26:25;;;;;;;7.63;2.92;;;;;;;16.50;100.00;101126.13;4943904;28;20222;-80
2023/07/18 05:28:51;;;;;;;41.72;7.63;;;;;;;16.67;100.00;101087.78;4937493;28;20232;-80
2023/07/18 05:31:18;;;;;;;5.65;2.33;;;;;;;16.87;100.00;101100.13;4929333;28;20256;-79
2023/07/18 05:33:46;;;;;;;26.25;6.43;;;;;;;16.99;100.00;101066.25;4938132;28;20230;-80
2023/07/18 05:36:13;;;;;;;7.05;2.90;;;;;;;17.10;100.00;101051.03;4951759;28;20225;-80
2023/07/18 05:38:40;;;;;;;37.72;8.73;;;;;;;17.30;100.00;101080.28;4938333;28;20292;-79
2023/07/18 05:41:06;;;;;;;5.18;2.20;;;;;;;17.41;100.00;101057.88;4939146;28;20234;-79
2023/07/18 05:43:33;;;;;;;6.03;2.38;;;;;;;17.44;100.00;101047.16;4937503;28;20232;-79
2023/07/18 05:46:00;;;;;;;5.25;2.33;;;;;;;17.52;100.00;101042.63;4940914;29;20238;-80
2023/07/18 05:48:27;;;;;;;5.53;2.20;;;;;;;17.71;100.00;101026.41;4946984;28;20233;-79
2023/07/18 05:50:55;;;;;;;5.50;2.15;;;;;;;17.85;100.00;101009.31;4936885;28;20251;-79
2023/07/18 05:53:22;;;;;;;5.85;2.45;;;;;;;18.05;100.00;101024.25;4951271;28;20233;-79
2023/07/18 05:55:50;;;;;;;9.45;3.60;;;;;;;18.10;100.00;101007.22;4927084;28;20240;-79
2023/07/18 05:58:17;;;;;;;5.95;2.60;;;;;;;18.13;100.00;100979.53;4925783;29;20230;-79
2023/07/18 06:00:44;;;;;;;11.52;4.20;;;;;;;18.25;100.00;100983.88;4939856;28;20234;-84
2023/07/18 06:03:10;;;;;;;4.80;1.95;;;;;;;18.00;100.00;100944.00;4946213;28;20229;-84
2023/07/18 06:05:37;;;;;;;10.18;3.72;;;;;;;18.33;100.00;100944.47;4917031;29;20226;-83
2023/07/18 06:08:05;;;;;;;4.63;1.92;;;;;;;18.30;100.00;100926.66;4920581;28;20237;-83
2023/07/18 06:10:31;;;;;;;4.55;1.80;;;;;;;18.22;100.00;100886.63;4939492;29;20241;-83
2023/07/18 06:12:58;;;;;;;4.60;2.00;;;;;;;18.42;100.00;100896.13;4938727;29;20234;-84
2023/07/18 06:15:25;;;;;;;4.93;1.90;;;;;;;18.75;100.00;100917.03;4946960;28;20221;-83
2023/07/18 06:17:52;;;;;;;7.43;2.53;;;;;;;18.70;100.00;100896.59;4936019;29;20279;-84
2023/07/18 06:20:20;;;;;;;4.72;1.83;;;;;;;18.82;100.00;100912.47;4947858;28;20237;-84
2023/07/18 06:22:47;;;;;;;33.75;7.65;;;;;;;19.05;100.00;100909.38;4938129;28;20707;-83
2023/07/18 06:25:15;;;;;;;5.32;2.17;;;;;;;19.11;100.00;100904.78;4946916;28;20643;-83
2023/07/18 06:27:42;;;;;;;35.55;9.75;;;;;;;18.93;100.00;100880.13;4941737;29;20237;-84
2023/07/18 06:30:09;;;;;;;4.35;1.95;;;;;;;19.09;100.00;100873.56;4947457;28;20694;-84
2023/07/18 06:32:36;;;;;;;17.90;5.05;;;;;;;19.43;100.00;100877.34;4942720;28;20313;-84
2023/07/18 06:35:04;;;;;;;4.10;1.90;;;;;;;19.72;100.00;100873.25;4933875;29;20296;-84
2023/07/18 06:37:48;;;;;;;30.35;7.43;;;;;;;19.46;100.00;100815.59;4940430;28;20229;-84
2023/07/18 06:40:15;;;;;;;4.97;2.08;;;;;;;19.69;100.00;100804.41;4924651;29;20237;-84
2023/07/18 06:42:43;;;;;;;34.63;9.07;;;;;;;19.67;100.00;100781.22;4941434;29;20233;-84
2023/07/18 06:45:10;;;;;;;3.50;1.73;;;;;;;20.01;100.00;100806.38;4943926;29;20226;-84
2023/07/18 06:47:36;;;;;;;13.52;4.45;;;;;;;20.23;100.00;100782.56;4941264;28;20230;-84
2023/07/18 06:50:03;;;;;;;4.13;2.20;;;;;;;20.30;100.00;100761.78;4945967;28;20234;-84
2023/07/18 06:52:30;;;;;;;4.18;1.95;;;;;;;20.15;100.00;100722.78;4945545;29;20221;-84
2023/07/18 06:55:01;;;;;;;4.90;2.10;;;;;;;20.14;100.00;100700.41;4919581;29;20230;-84
2023/07/18 06:57:28;;;;;;;3.50;1.52;;;;;;;20.79;100.00;100737.19;4939586;28;20280;-84
2023/07/18 06:59:55;;;;;;;4.57;2.10;;;;;;;20.59;100.00;100677.75;4939673;28;20430;-84
2023/07/18 07:02:22;;;;;;;3.88;1.90;;;;;;;20.71;100.00;100686.34;4945885;29;20574;-84
2023/07/18 07:04:48;;;;;;;25.00;7.07;;;;;;;20.64;100.00;100631.03;4941492;28;20257;-83
2023/07/18 07:07:15;;;;;;;4.35;2.00;;;;;;;20.82;100.00;100616.19;4944810;28;20245;-83
2023/07/18 07:09:45;;;;;;;28.67;6.43;;;;;;;21.12;100.00;100621.56;4922732;28;20236;-81
2023/07/18 07:12:14;;;;;;;4.05;1.95;;;;;;;21.10;100.00;100592.00;4945044;29;20253;-80
2023/07/18 07:14:56;;;;;;;2.47;1.27;;;;;;;21.37;100.00;100580.41;4941448;28;20289;-81
2023/07/18 07:17:23;;;;;;;3.92;1.73;;;;;;;21.39;100.00;100505.00;4950769;28;20229;-81
2023/07/18 07:19:50;;;;;;;33.40;8.98;;;;;;;21.56;100.00;100517.88;4938440;29;20333;-81
2023/07/18 07:22:17;;;;;;;4.45;2.13;;;;;;;21.71;100.00;100506.59;4944863;28;20649;-81
2023/07/18 07:24:46;;;;;;;8.00;2.83;;;;;;;21.76;100.00;100445.38;4942030;28;20241;-84
2023/07/18 07:27:13;;;;;;;3.45;1.67;;;;;;;22.13;100.00;100496.13;4938482;28;20233;-84
2023/07/18 07:29:40;;;;;;;9.25;3.45;;;;;;;21.93;100.00;100404.38;4935891;29;20233;-83
2023/07/18 07:32:07;;;;;;;3.00;1.50;;;;;;;21.76;100.00;100345.78;4947313;29;20237;-83
2023/07/18 07:34:34;;;;;;;3.85;1.80;;;;;;;22.53;100.00;100416.44;4939038;28;20225;-83
2023/07/18 07:37:03;;;;;;;3.65;1.83;;;;;;;22.53;100.00;100362.53;4944768;28;20670;-84
2023/07/18 07:39:30;;;;;;;3.88;1.73;;;;;;;22.24;100.00;100266.75;4943673;29;20222;-83
2023/07/18 07:41:57;;;;;;;3.08;1.70;;;;;;;22.77;100.00;100294.09;4941898;29;20260;-83
2023/07/18 07:44:24;;;;;;;3.90;2.05;;;;;;;22.86;100.00;100282.94;4939788;29;20218;-83
2023/07/18 07:46:51;;;;;;;9.63;3.53;;;;;;;22.81;98.52;100233.75;4935878;28;20292;-83
2023/07/18 07:49:17;;;;;;;4.60;2.10;;;;;;;23.18;98.61;100250.97;4944202;28;20660;-82
2023/07/18 07:51:44;;;;;;;7.43;3.05;;;;;;;23.26;99.33;100251.50;4934556;28;20233;-81
2023/07/18 07:54:14;;;;;;;2.25;1.40;;;;;;;23.09;95.53;100168.63;4941943;28;20225;-81
2023/07/18 07:56:41;;;;;;;6.00;2.70;;;;;;;22.81;97.06;100135.81;4938212;28;20233;-81
2023/07/18 07:59:08;;;;;;;4.60;2.28;;;;;;;23.71;93.26;100180.13;4938958;28;20284;-82
2023/07/18 08:01:38;;;;;;;6.60;2.47;;;;;;;23.88;91.71;100153.16;4934852;29;20232;-81
2023/07/18 08:04:05;;;;;;;3.60;1.73;;;;;;;23.61;92.59;100110.41;4936675;28;20288;-82
2023/07/18 08:06:32;;;;;;;4.05;1.80;;;;;;;23.99;87.82;100090.50;4919257;28;20311;-79
2023/07/18 08:08:59;;;;;;;4.15;1.92;;;;;;;23.80;86.09;100012.28;4939901;28;20237;-79
2023/07/18 08:11:26;;;;;;;4.20;1.98;;;;;;;24.00;87.65;100052.63;4931678;29;20221;-79
2023/07/18 08:13:53;;;;;;;4.30;1.95;;;;;;;23.56;89.52;99980.19;4945362;28;20244;-79
2023/07/18 08:16:20;;;;;;;6.13;2.65;;;;;;;24.16;92.53;100077.88;4941336;28;20237;-79
2023/07/18 08:18:47;;;;;;;7.43;2.70;;;;;;;23.91;89.47;100002.66;4933349;29;20225;-79
2023/07/18 08:21:14;;;;;;;4.40;2.25;;;;;;;24.91;87.92;100086.50;4938155;28;20236;-79
2023/07/18 08:23:42;;;;;;;5.88;2.40;;;;;;;24.24;82.62;99909.94;4937059;28;20241;-75
2023/07/18 08:26:09;;;;;;;4.05;1.88;;;;;;;24.71;86.59;99998.38;4942118;28;20229;-80
2023/07/18 08:28:35;;;;;;;5.50;2.60;;;;;;;24.91;85.18;99994.53;4917776;29;20237;-80
2023/07/18 08:31:03;;;;;;;3.83;1.80;;;;;;;25.34;79.72;99960.47;4942561;28;20233;-80
2023/07/18 08:33:31;;;;;;;4.20;2.38;;;;;;;24.93;79.74;99874.47;4937302;29;20237;-80
2023/07/18 08:35:58;;;;;;;3.67;1.70;;;;;;;24.46;80.58;99818.63;4934105;29;20229;-80
2023/07/18 08:38:24;;;;;;;3.83;1.90;;;;;;;25.15;80.34;99895.75;4942146;28;20248;-80
2023/07/18 08:40:52;;;;;;;10.68;4.10;;;;;;;25.01;77.34;99837.06;4933380;29;20241;-81
2023/07/18 08:43:19;;;;;;;3.67;1.73;;;;;;;25.56;74.76;99860.75;4948032;28;20677;-80
2023/07/18 08:45:46;;;;;;;9.98;3.78;;;;;;;24.91;75.17;99740.28;4924513;29;20225;-80
2023/07/18 08:48:13;;;;;;;3.50;1.70;;;;;;;24.67;77.48;99711.03;4933883;29;20265;-80
2023/07/18 08:50:41;;;;;;;10.15;3.72;;;;;;;26.02;72.75;99818.16;4932625;29;20226;-81
2023/07/18 08:53:08;;;;;;;3.80;1.75;;;;;;;25.97;70.98;99751.66;4945121;29;20229;-81
2023/07/18 08:55:36;;;;;;;4.10;1.83;;;;;;;25.99;70.31;99728.91;4919116;29;20277;-81
2023/07/18 08:58:04;;;;;;;4.35;2.03;;;;;;;25.41;71.16;99635.19;4943541;28;20229;-81
2023/07/18 09:00:30;;;;;;;3.10;1.48;;;;;;;26.01;72.54;99729.72;4925021;29;20737;-80
2023/07/18 09:02:57;;;;;;;2.70;1.38;;;;;;;26.51;67.38;99700.22;4936647;28;20239;-80
2023/07/18 09:05:28;;;;;;;3.67;1.83;;;;;;;25.29;72.70;99572.88;4942480;28;20225;-80
2023/07/18 09:07:56;;;;;;;4.95;2.28;;;;;;;25.92;70.90;99640.03;4937640;28;21022;-80
2023/07/18 09:10:24;;;;;;;2.95;1.50;;;;;;;26.32;68.86;99649.97;4944475;28;20228;-80
2023/07/18 09:12:50;;;;;;;8.43;3.25;;;;;;;26.83;65.90;99663.59;4936493;29;20225;-80
2023/07/18 09:15:21;;;;;;;3.33;1.60;;;;;;;26.57;63.11;99546.09;4924875;29;20221;-81
2023/07/18 09:17:54;;;;;;;21.10;6.53;;;;;;;26.56;64.79;99543.50;4910146;29;20243;-80
2023/07/18 09:20:24;;;;;;;3.65;1.92;;;;;;;26.03;65.09;99455.97;4933470;28;20237;-80
2023/07/18 09:22:58;;;;;;;9.75;3.65;;;;;;;26.47;66.89;99526.03;4923360;28;20316;-80
2023/07/18 09:25:26;;;;;;;3.20;1.50;;;;;;;26.71;61.28;99470.06;4927658;29;20282;-79
2023/07/18 09:27:54;;;;;;;3.50;1.60;;;;;;;26.50;60.52;99413.81;4940491;28;20511;-79
2023/07/18 09:30:41;;;;;;;4.68;2.42;;;;;;;27.05;59.98;99468.47;4942649;29;20229;-80
2023/07/18 09:33:07;;;;;;;4.05;1.83;;;;;;;27.33;62.45;99534.31;4940129;29;20253;-79
2023/07/18 09:35:39;;;;;;;2.42;1.30;;;;;;;27.66;65.56;99628.72;4941446;29;20225;-79
2023/07/18 09:38:07;;;;;;;2.10;1.10;;;;;;;27.81;60.50;99569.66;4926243;29;20240;-80
2023/07/18 09:40:35;;;;;;;3.63;1.65;;;;;;;26.37;59.58;99330.66;4938306;28;20236;-79
2023/07/18 09:43:05;;;;;;;4.82;2.47;;;;;;;26.33;60.25;99337.28;4938664;28;20240;-80
2023/07/18 09:45:32;;;;;;;4.60;2.20;;;;;;;28.54;60.30;99621.97;4934298;29;20617;-76
2023/07/18 09:48:00;;;;;;;3.40;1.63;;;;;;;29.42;60.58;99671.25;4919079;28;20238;-76
2023/07/18 09:50:27;;;;;;;4.03;1.98;;;;;;;28.36;55.40;99431.19;4918059;29;20225;-77
2023/07/18 09:52:57;;;;;;;15.57;1.90;;;;;;;27.74;58.65;99400.81;4914892;29;20340;-77
2023/07/18 09:55:26;;;;;;;2.97;1.30;;;;;;;27.23;53.00;99223.78;4946821;28;20228;-79
2023/07/18 09:57:58;;;;;;;3.38;1.63;;;;;;;27.22;52.96;99208.50;4933415;28;20300;-78
2023/07/18 10:00:25;;;;;;;3.53;1.60;;;;;;;28.64;51.53;99372.75;4926957;29;20229;-78
2023/07/18 10:02:52;;;;;;;6.60;2.25;;;;;;;29.77;50.51;99424.97;4947170;28;20236;-79
2023/07/18 10:05:19;;;;;;;3.17;1.45;;;;;;;28.46;50.21;99215.63;4931750;29;20227;-79
2023/07/18 10:07:46;;;;;;;6.50;2.63;;;;;;;27.82;55.13;99251.66;4921344;29;20247;-78
2023/07/18 10:10:13;;;;;;;3.97;1.90;;;;;;;28.53;56.42;99380.03;4924391;29;20233;-78
2023/07/18 10:12:55;;;;;;;7.57;3.15;;;;;;;27.61;58.13;99286.84;4924506;28;20232;-77
2023/07/18 10:15:22;;;;;;;3.17;1.50;;;;;;;29.25;57.17;99481.13;4943705;28;20221;-81
2023/07/18 10:17:49;;;;;;;6.75;2.85;;;;;;;30.79;55.73;99566.09;4937314;28;20268;-78
2023/07/18 10:20:20;;;;;;;3.28;1.58;;;;;;;31.42;55.85;99580.50;4937123;28;20303;-79
2023/07/18 10:22:49;;;;;;;6.78;2.70;;;;;;;30.55;50.51;99309.88;4926003;29;20225;-79
2023/07/18 10:25:19;;;;;;;3.35;1.58;;;;;;;28.50;50.76;99059.34;4933198;29;20224;-78
2023/07/18 10:27:48;;;;;;;5.07;2.10;;;;;;;28.34;49.71;99000.88;4929183;28;20241;-78
2023/07/18 10:30:19;;;;;;;3.13;1.60;;;;;;;28.36;49.93;99017.03;4938800;28;20220;-78
2023/07/18 10:32:55;;;;;;;6.40;2.45;;;;;;;27.31;52.52;98950.78;4935570;29;20237;-78
2023/07/18 10:35:26;;;;;;;3.83;1.75;;;;;;;28.33;55.63;99154.13;4939812;28;20232;-78
2023/07/18 10:37:58;;;;;;;3.13;1.60;;;;;;;27.78;53.20;99019.28;4939170;28;20280;-85
2023/07/18 10:40:43;;;;;;;3.17;1.50;;;;;;;27.29;51.30;98893.03;4921188;29;20225;-78
2023/07/18 10:43:18;;;;;;;5.00;2.35;;;;;;;27.54;53.67;99005.03;4935646;28;20319;-78
2023/07/18 10:45:45;;;;;;;9.48;3.55;;;;;;;28.35;51.77;99084.16;4935794;28;20283;-80
2023/07/18 10:48:15;;;;;;;3.63;1.52;;;;;;;27.83;50.45;98964.56;4941596;28;20321;-82
2023/07/18 10:50:43;;;;;;;14.05;4.30;;;;;;;27.67;50.25;98929.69;4934272;29;20316;-81
2023/07/18 10:53:14;;;;;;;3.17;1.55;;;;;;;28.63;51.43;99096.28;4941763;28;20698;-80
2023/07/18 10:55:41;;;;;;;26.65;7.30;;;;;;;28.91;50.99;99108.38;4933031;28;20221;-79
2023/07/18 10:58:19;;;;;;;3.78;1.80;;;;;;;28.61;50.80;99043.88;4938888;28;20233;-80
2023/07/18 11:00:48;;;;;;;9.85;3.58;;;;;;;28.97;51.97;99121.44;4940366;29;20716;-81
2023/07/18 11:03:23;;;;;;;3.05;1.50;;;;;;;29.52;49.09;99124.72;4925844;29;20233;-80
2023/07/18 11:05:51;;;;;;;5.68;2.33;;;;;;;29.23;48.77;99051.06;4938740;28;20236;-80
2023/07/18 11:08:28;;;;;;;1.92;1.00;;;;;;;29.36;48.19;99044.50;4946098;28;20307;-81
2023/07/18 11:10:59;;;;;;;3.58;1.65;;;;;;;29.33;49.22;99074.75;4938002;28;20323;-80
2023/07/18 11:13:37;;;;;;;3.20;1.60;;;;;;;28.58;47.48;98902.66;4934114;29;20225;-80
2023/07/18 11:16:07;;;;;;;3.00;1.50;;;;;;;30.15;48.95;99174.44;4953946;28;20248;-81
2023/07/18 11:18:35;;;;;;;4.63;2.08;;;;;;;31.53;48.20;99282.50;4942817;28;20247;-80
2023/07/18 11:21:03;;;;;;;4.57;2.03;;;;;;;31.30;46.71;99202.75;4954994;28;20241;-81
2023/07/18 11:23:31;;;;;;;3.08;1.58;;;;;;;29.41;46.39;98908.78;4928807;28;20248;-81